Time;durP1;ratioP1;P1;durP2;ratioP2;P2;SDS_P1;SDS_P2;PMS_P1;PMS_P2;Temp;Humidity;BMP_temperature;BMP_pressure;BME280_temperature;BME280_humidity;BME280_pressure;Samples;Min_cycle;Max_cycle;Signal;HPM_P1;HPM_P2
2023/01/16 00:01:47;;;;;;;1.93;1.73;;;8.60;78.60;;;11.38;54.28;99610.19;5036352;28;20191;-52
2023/01/16 00:04:14;;;;;;;3.23;1.40;;;8.60;78.30;;;11.38;54.24;99612.81;5023600;28;20191;-53
2023/01/16 00:06:41;;;;;;;2.37;1.60;;;8.60;78.20;;;11.37;53.80;99615.63;5015481;28;20246;-52
2023/01/16 00:09:09;;;;;;;2.43;1.20;;;8.60;77.90;;;11.38;54.09;99612.81;5016461;28;20281;-54
2023/01/16 00:11:36;;;;;;;2.43;1.40;;;8.60;78.10;;;11.43;54.18;99617.44;5027531;28;20218;-53
2023/01/16 00:14:04;;;;;;;3.43;1.50;;;8.70;78.30;;;11.47;54.38;99610.75;5033314;28;20190;-56
2023/01/16 00:16:31;;;;;;;1.67;1.30;;;8.70;78.30;;;11.50;54.10;99610.34;5033635;28;20723;-55
2023/01/16 00:18:58;;;;;;;2.83;1.20;;;8.70;78.10;;;11.49;53.93;99608.69;5033343;28;20210;-58
2023/01/16 00:21:25;;;;;;;2.97;1.33;;;8.70;77.90;;;11.51;53.89;99601.41;5016313;28;20199;-51
2023/01/16 00:23:54;;;;;;;2.23;1.40;;;8.70;78.20;;;11.46;53.66;99595.94;5013748;28;20195;-53
2023/01/16 00:26:23;;;;;;;2.73;1.40;;;8.70;78.60;;;11.37;53.87;99591.91;5013397;28;20191;-53
2023/01/16 00:28:50;;;;;;;4.27;1.30;;;8.70;77.80;;;11.24;53.93;99589.34;5014868;28;20603;-54
2023/01/16 00:31:17;;;;;;;2.87;1.40;;;8.60;77.50;;;11.18;54.67;99583.06;5016019;28;20261;-55
2023/01/16 00:33:44;;;;;;;1.93;1.30;;;8.60;77.50;;;11.21;54.60;99595.00;5015252;28;20191;-53
2023/01/16 00:36:12;;;;;;;3.30;1.30;;;8.60;77.70;;;11.27;54.17;99588.91;5015031;28;20215;-53
2023/01/16 00:38:39;;;;;;;3.93;1.70;;;8.60;78.00;;;11.25;54.07;99575.13;5021054;28;20227;-54
2023/01/16 00:41:06;;;;;;;1.83;1.27;;;8.50;77.90;;;11.22;54.58;99575.56;5015705;28;20195;-54
2023/01/16 00:43:34;;;;;;;4.07;1.70;;;8.50;77.90;;;11.16;54.76;99571.94;5034876;28;20203;-54
2023/01/16 00:46:01;;;;;;;2.23;1.40;;;8.50;78.00;;;11.11;54.40;99563.03;5034278;28;20241;-53
2023/01/16 00:48:28;;;;;;;3.80;1.40;;;8.50;78.80;;;11.06;55.13;99560.19;5034670;28;20586;-53
2023/01/16 00:50:55;;;;;;;2.07;1.60;;;8.50;78.30;;;11.00;55.07;99564.50;5033727;28;20218;-54
2023/01/16 00:53:22;;;;;;;1.97;1.27;;;8.50;78.30;;;11.00;54.89;99561.84;5029953;28;20624;-54
2023/01/16 00:55:51;;;;;;;1.93;1.57;;;8.40;78.40;;;10.97;55.41;99564.91;5021645;28;20639;-52
2023/01/16 00:58:18;;;;;;;4.40;1.80;;;8.40;78.60;;;10.88;55.15;99560.88;5034666;28;20293;-52
2023/01/16 01:00:46;;;;;;;1.90;1.13;;;8.40;78.80;;;10.88;55.50;99553.78;5034459;28;20681;-52
2023/01/16 01:03:13;;;;;;;2.47;1.50;;;8.30;78.70;;;10.93;55.20;99544.44;5035625;28;20203;-53
2023/01/16 01:05:40;;;;;;;1.90;1.40;;;8.30;78.90;;;10.96;55.22;99541.41;5034225;28;20198;-53
2023/01/16 01:08:07;;;;;;;3.67;1.40;;;8.30;79.00;;;10.97;55.78;99538.56;5033853;28;20230;-53
2023/01/16 01:10:38;;;;;;;3.20;1.60;;;8.30;79.00;;;11.01;55.07;99525.78;5033432;28;20195;-55
2023/01/16 01:13:05;;;;;;;2.90;1.63;;;8.30;79.00;;;11.00;55.12;99519.72;5032645;28;20198;-53
2023/01/16 01:15:32;;;;;;;3.33;1.60;;;8.40;79.20;;;11.02;55.13;99522.16;5033935;28;20205;-55
2023/01/16 01:18:01;;;;;;;2.70;1.40;;;8.30;79.00;;;10.93;55.53;99513.69;5034343;28;20210;-53
2023/01/16 01:20:28;;;;;;;4.07;1.60;;;8.30;79.10;;;10.88;55.31;99511.66;5033572;28;20677;-53
2023/01/16 01:22:55;;;;;;;3.97;1.40;;;8.30;79.00;;;10.87;55.92;99502.16;5033989;28;20248;-53
2023/01/16 01:25:23;;;;;;;1.97;1.50;;;8.30;79.10;;;10.89;55.94;99500.09;5033783;28;20760;-52
2023/01/16 01:27:50;;;;;;;3.23;1.53;;;8.30;79.20;;;10.94;55.97;99498.66;5031782;28;20675;-54
2023/01/16 01:30:17;;;;;;;4.53;1.30;;;8.30;79.20;;;10.94;55.91;99490.78;5014319;28;20203;-54
2023/01/16 01:32:44;;;;;;;4.13;1.57;;;8.30;79.60;;;11.00;55.82;99492.59;5013417;28;20202;-54
2023/01/16 01:35:12;;;;;;;2.20;1.40;;;8.30;79.30;;;11.06;55.11;99482.03;5013778;28;20196;-53
2023/01/16 01:37:39;;;;;;;2.97;1.63;;;8.30;79.40;;;11.14;55.21;99473.09;5014196;28;20656;-52
2023/01/16 01:40:08;;;;;;;5.37;2.13;;;8.40;79.60;;;11.19;54.95;99474.09;5019878;28;20248;-54
2023/01/16 01:42:43;;;;;;;2.87;2.00;;;8.40;79.60;;;11.20;54.91;99465.16;5031976;28;20202;-53
2023/01/16 01:45:17;;;;;;;3.63;1.90;;;8.40;79.50;;;11.21;55.00;99465.97;5022293;28;20289;-53
2023/01/16 01:47:51;;;;;;;3.57;2.17;;;8.40;79.50;;;11.19;55.37;99460.91;5014053;28;20209;-52
2023/01/16 01:50:32;;;;;;;5.03;2.47;;;8.40;80.00;;;11.15;54.78;99464.19;5014881;28;20194;-56
2023/01/16 01:53:06;;;;;;;6.20;1.93;;;8.40;79.20;;;11.03;55.38;99455.31;5023872;28;20217;-52
2023/01/16 01:55:33;;;;;;;3.13;1.77;;;8.40;79.00;;;11.00;55.66;99453.91;5018056;28;20203;-55
2023/01/16 01:58:02;;;;;;;4.73;1.60;;;8.40;79.00;;;11.01;55.25;99446.81;5033808;28;20217;-54
2023/01/16 02:00:30;;;;;;;2.33;1.23;;;8.40;79.10;;;11.04;55.02;99446.41;5030563;28;20195;-55
2023/01/16 02:03:06;;;;;;;3.53;1.57;;;8.40;79.10;;;11.07;55.53;99441.53;5033417;28;20183;-54
2023/01/16 02:05:44;;;;;;;3.33;1.50;;;8.40;79.30;;;11.12;55.54;99438.25;5014289;28;20504;-53
2023/01/16 02:08:15;;;;;;;4.37;1.53;;;8.40;79.30;;;11.15;55.47;99432.59;5013333;28;20695;-53
2023/01/16 02:10:49;;;;;;;3.13;1.77;;;8.40;79.30;;;11.13;55.41;99429.34;5023095;28;20542;-53
2023/01/16 02:13:15;;;;;;;4.83;1.50;;;8.40;79.10;;;11.15;54.85;99432.59;5029877;28;20221;-52
2023/01/16 02:21:47;;;;;;;5.83;2.13;;;8.40;78.80;;;11.04;55.36;99412.16;5031491;28;20209;-53
2023/01/16 02:24:56;;;;;;;4.70;1.60;;;8.40;78.80;;;11.05;55.13;99411.16;5032568;28;20190;-53
2023/01/16 02:28:03;;;;;;;5.07;1.60;;;8.40;78.90;;;11.04;54.93;99406.91;5033544;28;20307;-53
2023/01/16 02:31:01;;;;;;;4.30;1.80;;;8.40;78.80;;;10.96;54.71;99402.69;5021989;28;20219;-53
2023/01/16 02:33:47;;;;;;;3.70;1.87;;;8.40;78.60;;;11.00;55.40;99405.72;5015539;28;20200;-54
2023/01/16 02:36:27;;;;;;;4.60;1.87;;;8.40;78.60;;;11.03;54.79;99398.19;5033100;28;20221;-53
2023/01/16 02:39:11;;;;;;;3.10;1.90;;;8.40;78.80;;;11.05;55.13;99390.09;5033116;28;20218;-53
2023/01/16 02:41:49;;;;;;;3.10;1.33;;;8.40;78.50;;;11.00;55.11;99380.19;5033221;28;20199;-53
2023/01/16 02:44:28;;;;;;;5.63;2.17;;;8.40;78.50;;;11.00;55.44;99371.50;5034060;28;20522;-55
2023/01/16 02:47:22;;;;;;;3.67;2.03;;;8.40;78.70;;;10.96;54.57;99370.31;5034415;28;20648;-56
2023/01/16 02:50:02;;;;;;;2.53;1.40;;;8.40;78.50;;;10.89;55.43;99360.59;5029454;28;20214;-52
2023/01/16 02:52:39;;;;;;;4.83;1.33;;;8.40;78.50;;;10.88;55.10;99358.19;5034194;28;20191;-53
2023/01/16 02:55:20;;;;;;;4.00;2.10;;;8.40;78.60;;;10.85;55.33;99361.22;5016649;28;20237;-53
2023/01/16 02:57:55;;;;;;;4.63;1.67;;;8.30;78.50;;;10.81;55.52;99347.69;5034125;28;20241;-53
2023/01/16 03:00:24;;;;;;;2.43;1.57;;;8.30;78.70;;;10.83;55.48;99345.66;5034202;28;20202;-53
2023/01/16 03:02:52;;;;;;;4.53;2.00;;;8.30;78.80;;;10.82;55.93;99344.03;5036240;28;20198;-55
2023/01/16 03:05:20;;;;;;;2.70;1.30;;;8.30;78.90;;;10.83;55.60;99335.13;5036594;28;20281;-51
2023/01/16 03:08:31;;;;;;;4.73;1.50;;;8.30;78.90;;;10.74;55.21;99333.75;5034589;28;20217;-53
2023/01/16 03:11:22;;;;;;;2.87;1.40;;;8.20;78.80;;;10.69;55.64;99332.78;5036289;28;20182;-52
2023/01/16 03:14:09;;;;;;;4.63;1.80;;;8.20;78.80;;;10.68;55.72;99326.69;5036540;28;20670;-53
2023/01/16 03:16:47;;;;;;;3.63;1.60;;;8.20;78.80;;;10.67;55.94;99324.28;5036205;28;20202;-57
2023/01/16 03:19:32;;;;;;;3.60;1.63;;;8.20;78.80;;;10.65;55.95;99321.06;5036647;28;20214;-54
2023/01/16 03:22:12;;;;;;;3.40;1.53;;;8.20;78.80;;;10.53;55.68;99309.59;5035198;28;20202;-54
2023/01/16 03:25:01;;;;;;;1.80;1.50;;;8.10;78.60;;;10.48;56.06;99304.97;5036290;28;20197;-55
2023/01/16 03:27:44;;;;;;;1.70;0.97;;;8.10;78.80;;;10.43;56.27;99296.88;5035541;28;20207;-54
2023/01/16 03:30:24;;;;;;;3.47;1.40;;;8.10;78.90;;;10.39;56.55;99300.94;5033376;28;20198;-54
2023/01/16 03:32:58;;;;;;;2.43;1.37;;;8.00;78.80;;;10.34;56.34;99298.09;5016230;28;20193;-52
2023/01/16 03:35:33;;;;;;;3.90;1.27;;;8.00;79.10;;;10.32;56.15;99299.38;5027406;28;20190;-54
2023/01/16 03:38:05;;;;;;;2.67;1.30;;;7.90;79.10;;;10.19;57.04;99289.69;5035859;28;20272;-53
2023/01/16 03:40:42;;;;;;;2.80;1.33;;;7.90;79.30;;;10.14;56.97;99287.69;5030297;28;20202;-54
2023/01/16 03:43:16;;;;;;;2.03;1.13;;;7.80;79.20;;;10.04;57.16;99294.34;5016813;28;20609;-54
2023/01/16 03:45:51;;;;;;;2.60;1.40;;;7.80;79.50;;;10.00;57.12;99283.47;5029581;28;20210;-56
2023/01/16 03:48:24;;;;;;;4.60;1.77;;;7.70;79.70;;;10.02;57.02;99283.25;5035590;28;20221;-54
2023/01/16 03:51:03;;;;;;;4.20;1.30;;;7.70;79.80;;;10.02;57.31;99283.25;5032763;28;20195;-53
2023/01/16 03:53:38;;;;;;;3.83;1.50;;;7.70;79.80;;;10.06;57.10;99277.34;5026953;28;20199;-53
2023/01/16 03:56:15;;;;;;;2.77;1.10;;;7.60;79.90;;;10.08;56.44;99269.25;5016795;28;20230;-54
2023/01/16 03:58:52;;;;;;;2.97;1.50;;;7.60;79.90;;;10.07;57.22;99270.28;5013870;28;20282;-55
2023/01/16 04:01:32;;;;;;;4.80;1.60;;;7.60;80.10;;;10.05;57.06;99267.06;5016454;28;20237;-55
2023/01/16 04:04:05;;;;;;;3.90;1.20;;;7.60;80.20;;;9.97;57.10;99264.66;5034137;28;20191;-54
2023/01/16 04:06:44;;;;;;;2.43;1.30;;;7.50;80.30;;;9.88;57.36;99260.63;5034913;28;20187;-53
2023/01/16 04:09:21;;;;;;;6.00;1.30;;;7.50;80.50;;;9.88;57.39;99260.63;5035470;28;20223;-54
2023/01/16 04:11:51;;;;;;;3.53;1.37;;;7.50;80.50;;;9.93;57.50;99258.19;5034365;28;20643;-52
2023/01/16 04:14:23;;;;;;;2.80;1.00;;;7.50;80.70;;;9.90;57.68;99254.16;5032564;28;20199;-52
2023/01/16 04:16:51;;;;;;;2.50;1.23;;;7.40;80.80;;;9.91;57.58;99249.72;5016897;28;20605;-54
2023/01/16 04:19:21;;;;;;;1.10;0.80;;;7.40;80.70;;;9.89;57.40;99247.28;5015688;28;20211;-54
2023/01/16 04:21:50;;;;;;;4.37;1.57;;;7.40;80.80;;;9.92;57.59;99243.44;5015884;28;20187;-55
2023/01/16 04:24:17;;;;;;;1.53;1.13;;;7.50;81.20;;;9.91;57.80;99240.00;5032441;28;20638;-55
2023/01/16 04:26:44;;;;;;;3.03;1.00;;;7.40;81.20;;;9.91;58.26;99237.38;5034225;28;20190;-55
2023/01/16 04:29:11;;;;;;;2.40;1.00;;;7.40;81.40;;;9.94;58.36;99225.63;5035464;28;20211;-53
2023/01/16 04:31:38;;;;;;;4.23;1.20;;;7.40;81.70;;;9.96;58.36;99226.25;5024119;28;20281;-52
2023/01/16 04:34:05;;;;;;;3.20;1.30;;;7.50;81.90;;;10.02;58.03;99214.91;5029290;28;20194;-56
2023/01/16 04:36:32;;;;;;;3.13;1.10;;;7.50;81.80;;;10.09;58.02;99205.16;5034532;28;20561;-52
2023/01/16 04:39:00;;;;;;;2.40;1.23;;;7.50;82.00;;;10.14;57.83;99202.75;5035044;28;20218;-52
2023/01/16 04:41:35;;;;;;;3.70;1.30;;;7.50;81.90;;;10.22;57.87;99204.34;5034083;28;20202;-53
2023/01/16 04:44:05;;;;;;;3.57;1.17;;;7.50;82.10;;;10.27;57.47;99194.00;5020618;28;20198;-58
2023/01/16 04:46:32;;;;;;;3.17;1.00;;;7.60;82.20;;;10.30;57.52;99193.56;5021515;28;20191;-55
2023/01/16 04:48:59;;;;;;;2.97;0.90;;;7.60;82.00;;;10.28;57.64;99182.44;5022248;28;20262;-56
2023/01/16 04:51:28;;;;;;;2.97;1.10;;;7.60;81.90;;;10.29;57.08;99179.63;5028992;28;20209;-55
2023/01/16 04:53:55;;;;;;;4.13;1.43;;;7.60;81.80;;;10.25;57.74;99175.78;5022595;28;20195;-57
2023/01/16 04:56:24;;;;;;;2.17;1.00;;;7.60;81.80;;;10.19;57.84;99168.75;5018748;28;20265;-56
2023/01/16 04:58:52;;;;;;;2.73;1.40;;;7.60;81.80;;;10.17;57.65;99166.31;5019080;28;20215;-55
2023/01/16 05:01:20;;;;;;;3.80;1.60;;;7.60;81.70;;;10.20;57.36;99165.09;5020921;28;20663;-55
2023/01/16 05:03:47;;;;;;;2.40;1.47;;;7.60;81.80;;;10.18;58.16;99159.25;5023255;28;20201;-56
2023/01/16 05:06:14;;;;;;;2.00;1.17;;;7.60;81.90;;;10.19;57.68;99151.16;5039033;28;20202;-57
2023/01/16 05:08:40;;;;;;;2.53;1.60;;;7.60;81.70;;;10.15;57.59;99157.03;5039033;28;20213;-57
2023/01/16 05:11:08;;;;;;;4.30;1.37;;;7.60;81.60;;;10.15;57.55;99151.78;5034090;28;20205;-57
2023/01/16 05:13:36;;;;;;;2.93;1.40;;;7.60;81.50;;;10.13;58.11;99153.81;5019806;28;20225;-56
2023/01/16 05:16:04;;;;;;;1.97;1.10;;;7.60;81.60;;;10.23;57.96;99142.84;5019491;28;20187;-56
2023/01/16 05:18:31;;;;;;;2.37;1.27;;;7.60;81.50;;;10.31;57.11;99142.59;5019903;28;20619;-56
2023/01/16 05:20:59;;;;;;;5.07;1.20;;;7.70;81.60;;;10.38;57.07;99141.53;5019683;28;20195;-56
2023/01/16 05:23:26;;;;;;;3.23;1.30;;;7.70;81.50;;;10.43;57.18;99146.97;5025738;28;20273;-54
2023/01/16 05:25:53;;;;;;;3.40;1.40;;;7.70;81.40;;;10.31;57.15;99145.22;5013539;28;20254;-53
2023/01/16 05:28:20;;;;;;;3.33;1.13;;;7.70;81.20;;;10.29;56.89;99132.28;5013173;28;20706;-53
2023/01/16 05:30:49;;;;;;;3.23;0.97;;;7.70;81.10;;;10.27;56.90;99136.94;5012915;28;20668;-55
2023/01/16 05:33:16;;;;;;;4.07;1.20;;;7.70;81.00;;;10.34;57.54;99135.06;5031180;28;20194;-55
2023/01/16 05:35:45;;;;;;;2.13;1.10;;;7.80;81.00;;;10.32;56.67;99137.09;5031283;28;20190;-54
2023/01/16 05:38:12;;;;;;;5.83;1.50;;;7.70;80.80;;;10.26;57.35;99126.66;5031346;28;20833;-55
2023/01/16 05:40:39;;;;;;;2.53;1.10;;;7.70;80.60;;;10.28;56.96;99117.53;5032593;28;20198;-52
2023/01/16 05:43:06;;;;;;;1.80;1.20;;;7.70;80.70;;;10.28;56.82;99119.34;5032644;28;20194;-55
2023/01/16 05:45:33;;;;;;;4.50;1.40;;;7.70;80.40;;;10.28;56.85;99112.28;5034570;28;20202;-54
2023/01/16 05:48:01;;;;;;;2.53;1.20;;;7.70;80.30;;;10.29;56.92;99116.53;5032768;28;20554;-56
2023/01/16 05:50:28;;;;;;;4.00;1.60;;;7.70;80.30;;;10.17;57.16;99113.75;5014111;28;20678;-53
2023/01/16 05:52:56;;;;;;;4.50;1.47;;;7.70;80.20;;;10.14;57.17;99116.00;5016210;28;20636;-54
2023/01/16 05:55:26;;;;;;;3.13;1.67;;;7.70;80.70;;;10.13;57.16;99111.75;5017107;28;20713;-54
2023/01/16 05:57:53;;;;;;;3.43;1.60;;;7.70;81.50;;;10.13;57.74;99106.50;5048823;28;20655;-54
2023/01/16 06:00:20;;;;;;;2.90;1.60;;;7.70;81.20;;;10.10;57.92;99106.91;5034010;28;20256;-54
2023/01/16 06:02:48;;;;;;;3.50;1.50;;;7.70;81.70;;;10.12;58.57;99104.91;5029714;28;20549;-55
2023/01/16 06:05:17;;;;;;;4.10;1.70;;;7.70;82.00;;;10.16;58.19;99090.31;5013947;28;20199;-53
2023/01/16 06:07:44;;;;;;;3.37;1.53;;;7.70;82.30;;;10.20;58.24;99097.56;5014089;28;20215;-53
2023/01/16 06:10:10;;;;;;;3.40;1.90;;;7.70;82.40;;;10.27;58.31;99091.47;5013864;28;20241;-53
2023/01/16 06:12:38;;;;;;;3.43;1.43;;;7.70;82.40;;;10.37;58.63;99087.31;5026847;28;20199;-53
2023/01/16 06:15:07;;;;;;;2.67;1.23;;;7.70;83.00;;;10.47;57.86;99077.13;5026372;28;20191;-53
2023/01/16 06:17:34;;;;;;;3.37;1.60;;;7.70;83.00;;;10.54;58.36;99072.63;5033276;28;20633;-55
2023/01/16 06:20:01;;;;;;;2.13;1.50;;;7.70;83.20;;;10.56;57.80;99070.56;5033454;28;20213;-57
2023/01/16 06:22:30;;;;;;;4.70;1.67;;;7.80;83.20;;;10.56;58.20;99070.56;5019672;28;20203;-56
2023/01/16 06:24:56;;;;;;;3.63;1.60;;;7.80;83.00;;;10.59;57.54;99059.63;5032282;28;20202;-55
2023/01/16 06:27:23;;;;;;;3.80;2.40;;;7.80;82.80;;;10.63;58.17;99050.28;5035086;28;20214;-54
2023/01/16 06:29:50;;;;;;;6.70;1.67;;;7.80;82.90;;;10.66;57.61;99060.38;5036263;28;20264;-54
2023/01/16 06:32:17;;;;;;;2.50;1.40;;;7.90;82.80;;;10.68;57.19;99050.44;5024954;28;20667;-53
2023/01/16 06:34:44;;;;;;;5.63;1.73;;;7.90;82.70;;;10.68;56.95;99047.00;5033948;28;20199;-54
2023/01/16 06:37:12;;;;;;;3.23;1.60;;;7.90;82.50;;;10.68;57.54;99045.16;5037591;28;20214;-52
2023/01/16 06:39:40;;;;;;;3.53;1.70;;;7.90;82.40;;;10.71;57.24;99039.50;5036478;28;20655;-54
2023/01/16 06:42:07;;;;;;;2.70;1.67;;;7.90;82.40;;;10.73;57.74;99034.81;5027632;28;20191;-53
2023/01/16 06:44:34;;;;;;;5.30;1.80;;;7.90;82.70;;;10.73;56.76;99034.00;5032640;28;20202;-56
2023/01/16 06:47:01;;;;;;;3.93;2.00;;;7.90;82.20;;;10.69;57.31;99024.94;5029929;28;20274;-55
2023/01/16 06:49:28;;;;;;;2.27;1.60;;;7.90;81.90;;;10.64;56.63;99030.84;5039950;28;20191;-56
2023/01/16 06:51:55;;;;;;;4.37;2.10;;;7.90;81.30;;;10.60;56.91;99029.66;5029811;28;20192;-53
2023/01/16 06:54:22;;;;;;;2.33;1.90;;;7.90;81.20;;;10.53;56.30;99023.66;5017029;28;20191;-59
2023/01/16 06:56:50;;;;;;;2.47;1.90;;;7.80;80.70;;;10.47;56.47;99024.53;5017126;28;20194;-54
2023/01/16 06:59:17;;;;;;;3.33;2.13;;;7.80;80.50;;;10.42;56.64;99024.38;5016552;28;20207;-52
2023/01/16 07:01:44;;;;;;;4.07;1.40;;;7.80;80.60;;;10.40;56.59;99018.53;5022987;28;20647;-52
2023/01/16 07:04:11;;;;;;;4.43;2.00;;;7.70;80.80;;;10.41;56.08;99009.59;5022808;28;20602;-54
2023/01/16 07:06:39;;;;;;;2.27;1.67;;;7.70;80.60;;;10.43;56.42;99017.28;5016407;28;20632;-55
2023/01/16 07:09:07;;;;;;;2.87;1.30;;;7.70;80.70;;;10.42;56.37;99013.84;5019071;28;20210;-53
2023/01/16 07:11:34;;;;;;;3.83;2.20;;;7.70;80.70;;;10.42;56.12;99013.84;5015275;28;20199;-53
2023/01/16 07:22:35;;;;;;;3.80;1.80;;;7.70;79.80;;;10.24;55.90;99003.28;5019430;28;20207;-53
2023/01/16 07:25:09;;;;;;;3.37;1.50;;;7.60;79.60;;;10.12;56.33;98999.75;5015972;28;20215;-55
2023/01/16 07:27:51;;;;;;;3.73;1.40;;;7.60;79.50;;;10.02;56.85;98999.38;5020553;28;20227;-55
2023/01/16 07:30:22;;;;;;;1.57;1.27;;;7.60;79.60;;;9.96;56.71;99000.25;5018671;28;20772;-54
2023/01/16 07:32:50;;;;;;;3.07;1.60;;;7.50;79.80;;;10.01;56.41;98992.50;5036548;28;20256;-56
2023/01/16 07:35:18;;;;;;;2.50;1.50;;;7.50;80.10;;;9.99;56.68;98990.09;5019437;28;20756;-58
2023/01/16 07:37:45;;;;;;;3.17;1.50;;;7.40;80.00;;;10.06;56.37;98987.41;5021783;28;20703;-56
2023/01/16 07:40:13;;;;;;;3.57;1.73;;;7.40;80.20;;;10.12;56.67;98983.97;5019486;28;20198;-56
2023/01/16 07:42:40;;;;;;;7.90;4.80;;;7.50;80.50;;;10.18;57.04;98972.59;5023062;28;20226;-54
2023/01/16 07:45:08;;;;;;;3.77;2.33;;;7.50;80.60;;;10.24;56.55;98969.13;5018952;28;20237;-54
2023/01/16 07:47:36;;;;;;;2.67;1.30;;;7.50;80.60;;;10.28;55.92;98975.53;5022790;28;20223;-57
2023/01/16 07:50:05;;;;;;;6.77;2.10;;;7.50;80.30;;;10.32;56.10;98963.56;5020517;28;20200;-56
2023/01/16 07:52:32;;;;;;;2.63;1.90;;;7.50;80.60;;;10.33;56.02;98962.56;5022674;28;20339;-55
2023/01/16 07:54:59;;;;;;;3.00;1.37;;;7.50;80.40;;;10.27;56.11;98954.75;5011808;28;20223;-60
2023/01/16 07:57:26;;;;;;;3.70;1.73;;;7.50;79.80;;;10.25;56.09;98947.03;5022150;28;20231;-51
2023/01/16 07:59:53;;;;;;;5.60;2.00;;;7.60;79.70;;;10.24;55.75;98945.47;5020091;28;20620;-54
2023/01/16 08:02:27;;;;;;;2.97;1.37;;;7.50;79.60;;;10.14;56.08;98939.88;5024855;28;20195;-55
2023/01/16 08:04:56;;;;;;;2.07;1.13;;;7.50;79.50;;;10.05;55.64;98928.00;5040059;28;20596;-55
2023/01/16 08:07:25;;;;;;;1.73;1.20;;;7.50;79.60;;;10.02;56.27;98925.81;5013440;28;20273;-57
2023/01/16 08:09:56;;;;;;;1.70;1.07;;;7.50;79.70;;;10.02;56.66;98926.63;5022741;28;20203;-57
2023/01/16 08:12:29;;;;;;;1.57;1.10;;;7.40;79.90;;;10.05;56.93;98913.03;5027059;28;20892;-57
2023/01/16 08:15:02;;;;;;;2.03;1.40;;;7.50;80.30;;;10.11;56.62;98914.00;5020983;28;20218;-56
2023/01/16 08:17:39;;;;;;;4.07;1.70;;;7.50;80.70;;;10.07;56.33;98902.31;5008794;28;20231;-59
2023/01/16 08:20:10;;;;;;;2.37;1.10;;;7.40;80.40;;;10.15;56.14;98904.66;5008690;28;20203;-56
2023/01/16 08:22:43;;;;;;;3.00;1.60;;;7.50;80.50;;;10.17;56.08;98897.41;5026005;28;20203;-65
2023/01/16 08:25:10;;;;;;;2.10;1.40;;;7.50;80.40;;;10.18;56.39;98893.72;5027356;28;20226;-53
2023/01/16 08:27:37;;;;;;;6.17;1.30;;;7.50;80.20;;;10.20;56.40;98887.22;5025405;28;20298;-58
2023/01/16 08:30:06;;;;;;;3.03;2.23;;;7.50;81.20;;;10.24;56.20;98871.84;5029903;28;20552;-58
2023/01/16 08:32:34;;;;;;;4.10;1.20;;;7.50;80.70;;;10.27;56.41;98871.38;5025617;28;20209;-57
2023/01/16 08:35:03;;;;;;;4.50;1.60;;;7.50;81.30;;;10.22;56.30;98852.84;5025849;28;20203;-55
2023/01/16 08:37:32;;;;;;;3.97;2.73;;;7.50;80.10;;;10.24;55.78;98856.06;5030511;28;20222;-56
2023/01/16 08:40:00;;;;;;;4.90;2.83;;;7.60;80.30;;;10.29;56.19;98853.59;5035442;28;20215;-59
2023/01/16 08:53:35;;;;;;;1.97;1.43;;;7.60;80.00;;;10.17;56.50;98829.06;5030928;28;20655;-56
2023/01/16 08:56:02;;;;;;;2.17;1.33;;;7.60;80.00;;;10.19;56.64;98827.00;5019811;28;20198;-55
2023/01/16 08:58:30;;;;;;;1.93;1.17;;;7.60;80.10;;;10.22;56.83;98821.31;5015781;28;20219;-54
2023/01/16 09:00:58;;;;;;;3.00;2.43;;;7.60;80.10;;;10.33;56.84;98828.47;5017816;28;20642;-55
2023/01/16 09:03:27;;;;;;;2.63;1.70;;;7.60;80.30;;;10.38;56.76;98814.66;5020679;28;20191;-55
2023/01/16 09:05:54;;;;;;;5.93;3.17;;;7.70;80.40;;;10.48;55.79;98814.94;5022449;28;20595;-57
2023/01/16 09:08:21;;;;;;;2.43;1.50;;;7.70;80.30;;;10.50;56.04;98813.69;5017774;28;20564;-57
2023/01/16 09:13:51;;;;;;;2.53;1.77;;;7.80;79.70;;;10.50;55.94;98805.81;5023643;28;20203;-59
2023/01/16 09:16:21;;;;;;;1.43;1.00;;;7.80;79.60;;;10.52;55.60;98795.84;5017895;28;20368;-53
2023/01/16 09:18:48;;;;;;;2.47;1.30;;;7.90;79.50;;;10.52;56.00;98790.59;5017738;28;20226;-56
2023/01/16 09:21:18;;;;;;;2.07;1.80;;;7.80;79.40;;;10.50;55.46;98787.38;5016947;28;20188;-53
2023/01/16 09:23:45;;;;;;;12.63;9.37;;;7.90;79.30;;;10.52;55.57;98774.81;5015606;28;20191;-55
2023/01/16 09:26:14;;;;;;;6.10;3.83;;;7.90;79.30;;;10.54;55.59;98772.75;5014956;28;20206;-54
2023/01/16 09:28:41;;;;;;;2.33;1.77;;;7.90;79.20;;;10.58;55.73;98767.84;5013823;28;20675;-57
2023/01/16 09:31:09;;;;;;;1.33;1.00;;;7.90;79.20;;;10.52;55.99;98769.56;5021358;28;20678;-54
2023/01/16 09:33:39;;;;;;;4.20;3.17;;;7.90;78.90;;;10.58;56.06;98768.66;5017430;28;20198;-55
2023/01/16 09:36:08;;;;;;;2.53;1.40;;;7.90;79.20;;;10.58;55.69;98765.22;5021442;28;20225;-52
2023/01/16 09:38:36;;;;;;;2.63;1.80;;;8.00;80.00;;;10.65;55.36;98756.22;5020342;28;20305;-57
2023/01/16 09:41:03;;;;;;;3.30;1.60;;;8.00;79.30;;;10.65;55.63;98760.69;5019144;28;20281;-56
2023/01/16 09:43:38;;;;;;;2.97;1.20;;;8.00;79.20;;;10.65;55.64;98748.31;5019091;28;20198;-55
2023/01/16 09:46:13;;;;;;;2.30;1.13;;;8.10;79.20;;;10.69;55.76;98744.22;5021390;28;20225;-58
2023/01/16 09:48:55;;;;;;;1.20;1.10;;;8.10;79.10;;;10.53;55.16;98744.06;5020044;28;20209;-54
2023/01/16 09:51:28;;;;;;;3.70;1.63;;;8.00;78.60;;;10.57;55.55;98735.50;5018243;28;20297;-57
2023/01/16 09:59:47;;;;;;;1.77;1.60;;;8.10;78.90;;;10.66;55.84;98713.09;5020126;28;20261;-54
2023/01/16 10:02:24;;;;;;;4.40;1.20;;;8.10;78.80;;;10.61;55.72;98705.09;5015595;28;20522;-57
2023/01/16 10:04:55;;;;;;;3.63;1.77;;;8.10;78.80;;;10.50;56.18;98695.34;5024089;28;20699;-53
2023/01/16 10:07:49;;;;;;;1.47;1.33;;;8.00;78.50;;;10.43;56.34;98686.75;5024158;28;20223;-58
2023/01/16 10:10:42;;;;;;;2.07;1.43;;;8.10;78.80;;;10.52;56.10;98685.38;5021970;28;20220;-57
2023/01/16 10:13:31;;;;;;;1.73;1.27;;;8.10;78.90;;;10.44;56.11;98672.56;5014284;28;20289;-54
2023/01/16 10:16:15;;;;;;;2.37;1.43;;;8.10;78.70;;;10.54;55.78;98667.56;5020446;28;20195;-55
2023/01/16 10:18:54;;;;;;;1.20;1.10;;;8.10;78.80;;;10.54;56.22;98667.56;5020178;28;20229;-56
2023/01/16 10:22:01;;;;;;;2.30;0.90;;;8.10;78.70;;;10.55;56.05;98658.66;5032867;28;20196;-55
2023/01/16 10:24:50;;;;;;;2.10;1.27;;;8.20;78.60;;;10.63;55.48;98650.41;5020104;28;20198;-56
2023/01/16 10:27:35;;;;;;;2.47;1.20;;;8.20;78.50;;;10.67;55.02;98646.28;5031605;28;20211;-56
2023/01/16 10:30:13;;;;;;;2.90;1.30;;;8.20;78.30;;;10.68;55.47;98645.28;5017520;28;20690;-54
2023/01/16 10:32:50;;;;;;;4.20;1.80;;;8.20;78.10;;;10.70;55.38;98635.31;5013237;28;20204;-53
2023/01/16 10:35:25;;;;;;;3.07;1.50;;;8.30;78.30;;;10.85;55.14;98627.78;5019725;28;20549;-53
2023/01/16 10:37:56;;;;;;;2.47;1.23;;;8.30;78.30;;;10.85;55.07;98621.72;5010737;28;20293;-56
2023/01/16 10:40:29;;;;;;;1.30;1.00;;;8.30;77.70;;;10.85;54.56;98617.28;5010315;28;20815;-57
2023/01/16 10:51:36;;;;;;;2.97;1.50;;;8.50;76.90;;;11.05;54.10;98574.00;5017819;28;20203;-55
2023/01/16 10:54:03;;;;;;;3.27;1.57;;;8.60;76.80;;;10.95;54.43;98571.16;5023785;28;20215;-55
2023/01/16 10:56:33;;;;;;;2.73;1.30;;;8.50;76.30;;;10.99;53.86;98556.50;5021923;28;20209;-56
2023/01/16 10:59:00;;;;;;;4.87;1.60;;;8.60;76.40;;;11.07;53.42;98545.63;5027640;28;20218;-57
2023/01/16 11:01:29;;;;;;;2.30;1.70;;;8.60;76.00;;;11.15;53.69;98547.91;5015895;28;20725;-54
2023/01/16 11:04:00;;;;;;;2.37;1.20;;;8.70;75.80;;;11.14;52.82;98535.75;5022679;28;20209;-54
2023/01/16 11:06:29;;;;;;;2.93;1.77;;;8.70;74.90;;;11.10;52.90;98529.38;5021634;28;20195;-52
2023/01/16 11:09:03;;;;;;;2.80;1.70;;;8.70;74.80;;;10.99;52.57;98522.28;5023090;28;20235;-53
2023/01/16 11:20:18;;;;;;;3.17;1.33;;;8.80;74.60;;;11.00;53.23;98494.94;5017761;28;20221;-56
2023/01/16 11:22:57;;;;;;;5.77;1.53;;;8.70;74.50;;;10.98;53.69;98483.84;5017678;28;20829;-55
2023/01/16 11:25:26;;;;;;;2.27;1.13;;;8.70;74.90;;;11.06;53.31;98478.19;5019411;28;21449;-55
2023/01/16 11:27:58;;;;;;;2.83;1.40;;;8.70;75.00;;;10.96;53.65;98478.03;5020259;28;20983;-59
2023/01/16 11:30:31;;;;;;;2.67;1.20;;;8.70;75.30;;;10.79;54.75;98468.19;5020499;28;20198;-56
2023/01/16 11:32:59;;;;;;;3.47;1.20;;;8.60;75.80;;;10.77;54.90;98464.19;5020211;28;20195;-56
2023/01/16 11:35:35;;;;;;;3.37;1.13;;;8.60;76.10;;;10.70;55.20;98453.78;5025562;28;20216;-54